createdAt,value
2023-03-16T00:02:10.473Z,9.50
2023-03-16T00:04:40.237Z,9.83
2023-03-16T00:07:10.067Z,8.93
2023-03-16T00:09:40.931Z,10.37
2023-03-16T00:12:16.951Z,11.40
2023-03-16T00:14:48.826Z,10.70
2023-03-16T00:17:20.541Z,9.70
2023-03-16T00:19:57.932Z,11.20
2023-03-16T00:22:29.769Z,11.40
2023-03-16T00:24:57.213Z,10.00
2023-03-16T00:27:26.132Z,8.63
2023-03-16T00:29:57.097Z,9.80
2023-03-16T00:32:32.089Z,9.67
2023-03-16T00:34:59.633Z,8.73
2023-03-16T00:37:28.649Z,11.00
2023-03-16T00:39:56.629Z,10.17
2023-03-16T00:42:27.891Z,10.23
2023-03-16T00:44:59.094Z,12.53
2023-03-16T00:47:29.915Z,9.57
2023-03-16T00:49:57.693Z,11.00
2023-03-16T00:52:27.458Z,10.87
2023-03-16T00:54:55.789Z,10.13
2023-03-16T00:57:26.041Z,10.47
2023-03-16T00:59:52.999Z,10.10
2023-03-16T01:02:24.933Z,10.03
2023-03-16T01:04:54.413Z,10.17
2023-03-16T01:07:21.937Z,9.37
2023-03-16T01:09:49.293Z,9.43
2023-03-16T01:12:19.275Z,11.17
2023-03-16T01:14:47.628Z,9.57
2023-03-16T01:17:17.392Z,10.80
2023-03-16T01:19:45.854Z,11.03
2023-03-16T01:22:13.208Z,10.07
2023-03-16T01:24:41.848Z,11.40
2023-03-16T01:27:09.492Z,11.20
2023-03-16T01:29:37.636Z,10.67
2023-03-16T01:32:05.464Z,10.83
2023-03-16T01:34:33.738Z,9.60
2023-03-16T01:37:01.526Z,9.87
2023-03-16T01:39:36.873Z,9.70
2023-03-16T01:42:04.040Z,9.73
2023-03-16T01:45:01.971Z,10.23
2023-03-16T01:47:38.205Z,9.43
2023-03-16T01:50:07.436Z,8.93
2023-03-16T01:52:38.769Z,9.23
2023-03-16T01:55:13.555Z,10.37
2023-03-16T01:57:44.998Z,10.53
2023-03-16T02:00:23.485Z,9.97
2023-03-16T02:03:16.200Z,9.50
2023-03-16T02:06:12.830Z,9.50
2023-03-16T02:08:47.012Z,9.67
2023-03-16T02:11:17.984Z,10.33
2023-03-16T02:14:11.716Z,9.73
2023-03-16T02:16:40.531Z,8.87
2023-03-16T02:19:19.850Z,9.43
2023-03-16T02:22:03.832Z,8.70
2023-03-16T02:24:33.953Z,10.17
2023-03-16T02:27:13.761Z,10.13
2023-03-16T02:29:59.558Z,10.50
2023-03-16T02:32:31.166Z,10.43
2023-03-16T02:35:00.395Z,9.43
2023-03-16T02:37:27.612Z,9.87
2023-03-16T02:39:55.200Z,10.70
2023-03-16T02:42:26.400Z,8.30
2023-03-16T02:45:00.239Z,9.87
2023-03-16T02:47:42.742Z,9.10
2023-03-16T02:50:12.620Z,9.33
2023-03-16T02:52:41.019Z,9.43
2023-03-16T02:55:08.629Z,8.73
2023-03-16T02:57:35.507Z,9.40
2023-03-16T03:00:13.428Z,9.87
2023-03-16T03:02:40.955Z,8.70
2023-03-16T03:05:08.289Z,9.00
2023-03-16T03:07:36.019Z,9.27
2023-03-16T03:10:07.069Z,8.77
2023-03-16T03:12:34.967Z,8.40
2023-03-16T03:15:05.971Z,10.53
2023-03-16T03:17:39.962Z,10.80
2023-03-16T03:20:17.048Z,8.93
2023-03-16T03:22:47.738Z,8.73
2023-03-16T03:25:18.550Z,9.20
2023-03-16T03:27:48.705Z,8.80
2023-03-16T03:30:22.555Z,8.07
2023-03-16T03:32:49.563Z,7.90
2023-03-16T03:35:19.159Z,9.23
2023-03-16T03:37:46.207Z,9.20
2023-03-16T03:40:18.081Z,9.27
2023-03-16T03:42:48.009Z,8.77
2023-03-16T03:45:15.617Z,8.07
2023-03-16T03:47:44.525Z,8.67
2023-03-16T03:50:16.388Z,8.57
2023-03-16T03:52:53.052Z,8.33
2023-03-16T03:55:19.836Z,8.40
2023-03-16T03:57:46.615Z,8.20
2023-03-16T04:00:14.805Z,6.90
2023-03-16T04:02:42.942Z,8.37
2023-03-16T04:05:21.870Z,7.60
2023-03-16T04:07:54.926Z,8.87
2023-03-16T04:10:21.701Z,7.57
2023-03-16T04:12:48.481Z,8.10
2023-03-16T04:15:15.369Z,8.77
2023-03-16T04:18:10.282Z,7.40
2023-03-16T04:20:38.011Z,8.13
2023-03-16T04:23:05.212Z,9.17
2023-03-16T04:25:34.705Z,7.90
2023-03-16T04:28:01.974Z,7.67
2023-03-16T04:30:31.598Z,7.27
2023-03-16T04:33:12.189Z,8.30
2023-03-16T04:35:39.104Z,7.53
2023-03-16T04:38:06.116Z,7.63
2023-03-16T04:40:40.974Z,8.00
2023-03-16T04:43:13.869Z,7.10
2023-03-16T04:45:42.061Z,6.60
2023-03-16T04:48:10.305Z,7.33
2023-03-16T04:50:38.158Z,7.47
2023-03-16T04:53:05.432Z,7.50
2023-03-16T04:55:33.115Z,8.50
2023-03-16T04:58:01.379Z,6.97
2023-03-16T05:00:33.480Z,8.27
2023-03-16T05:03:05.685Z,12.30
2023-03-16T05:05:32.990Z,23.20
2023-03-16T05:08:01.720Z,15.23
2023-03-16T05:10:30.730Z,14.07
2023-03-16T05:12:57.870Z,14.30
2023-03-16T05:15:24.955Z,15.87
2023-03-16T05:18:00.017Z,18.27
2023-03-16T05:20:27.463Z,15.40
2023-03-16T05:22:58.693Z,15.60
2023-03-16T05:25:29.211Z,11.60
2023-03-16T05:27:58.220Z,12.23
2023-03-16T05:30:34.132Z,12.50
2023-03-16T05:33:04.872Z,11.47
2023-03-16T05:35:32.374Z,14.27
2023-03-16T05:38:04.795Z,13.47
2023-03-16T05:40:34.439Z,12.73
2023-03-16T05:43:11.083Z,14.33
2023-03-16T05:45:43.963Z,16.07
2023-03-16T05:48:14.925Z,18.93
2023-03-16T05:50:45.742Z,17.57
2023-03-16T05:53:15.244Z,22.60
2023-03-16T05:55:44.595Z,17.23
2023-03-16T05:58:15.055Z,25.97
2023-03-16T06:00:43.749Z,19.47
2023-03-16T06:03:36.702Z,15.87
2023-03-16T06:06:07.827Z,18.07
2023-03-16T06:08:43.317Z,14.03
2023-03-16T06:11:12.586Z,15.87
2023-03-16T06:13:40.474Z,12.70
2023-03-16T06:16:08.783Z,14.30
2023-03-16T06:18:36.262Z,14.53
2023-03-16T06:21:04.163Z,14.60
2023-03-16T06:23:33.617Z,16.03
2023-03-16T06:26:01.229Z,18.90
2023-03-16T06:28:30.759Z,13.43
2023-03-16T06:30:58.312Z,14.67
2023-03-16T06:33:29.436Z,11.57
2023-03-16T06:35:56.926Z,13.87
2023-03-16T06:38:33.498Z,11.20
2023-03-16T06:41:03.306Z,10.33
2023-03-16T06:43:33.605Z,11.00
2023-03-16T06:46:01.471Z,9.93
2023-03-16T06:48:29.065Z,9.17
2023-03-16T06:50:56.195Z,8.50
2023-03-16T06:53:26.722Z,8.60
2023-03-16T06:55:55.419Z,9.30
2023-03-16T06:58:22.429Z,10.80
2023-03-16T07:00:49.497Z,9.10
2023-03-16T07:03:16.347Z,14.03
2023-03-16T07:05:48.939Z,9.10
2023-03-16T07:08:16.058Z,8.93
2023-03-16T07:10:42.879Z,10.90
2023-03-16T07:13:09.648Z,8.30
2023-03-16T07:15:36.551Z,8.40
2023-03-16T07:18:05.418Z,8.93
2023-03-16T07:20:33.026Z,9.57
2023-03-16T07:23:02.545Z,8.37
2023-03-16T07:25:29.393Z,8.77
2023-03-16T07:27:56.176Z,8.67
2023-03-16T07:30:30.049Z,9.60
2023-03-16T07:32:57.345Z,8.37
2023-03-16T07:35:26.691Z,8.57
2023-03-16T07:37:54.285Z,8.77
2023-03-16T07:40:21.969Z,8.93
2023-03-16T07:42:49.461Z,8.03
2023-03-16T07:45:26.526Z,8.00
2023-03-16T07:47:54.528Z,8.90
2023-03-16T07:50:44.658Z,8.53
2023-03-16T07:53:11.590Z,8.37
2023-03-16T07:55:41.584Z,8.33
2023-03-16T07:58:10.639Z,10.63
2023-03-16T08:00:40.265Z,7.83
2023-03-16T08:03:07.160Z,8.73
2023-03-16T08:05:34.518Z,11.07
2023-03-16T08:08:09.502Z,10.03
2023-03-16T08:10:37.530Z,8.40
2023-03-16T08:13:12.045Z,7.57
2023-03-16T08:15:45.321Z,7.77
2023-03-16T08:18:19.111Z,7.40
2023-03-16T08:20:46.315Z,8.10
2023-03-16T08:23:15.637Z,7.63
2023-03-16T08:25:42.880Z,7.33
2023-03-16T08:28:15.654Z,9.40
2023-03-16T08:30:51.086Z,8.47
2023-03-16T08:33:30.811Z,8.17
2023-03-16T08:35:59.184Z,7.17
2023-03-16T08:38:26.066Z,7.57
2023-03-16T08:40:53.701Z,7.73
2023-03-16T08:43:22.600Z,6.70
2023-03-16T08:45:52.362Z,7.27
2023-03-16T08:48:22.700Z,6.27
2023-03-16T08:50:51.733Z,8.97
2023-03-16T08:53:18.830Z,7.57
2023-03-16T08:55:46.240Z,6.37
2023-03-16T08:58:15.240Z,6.63
2023-03-16T09:00:44.846Z,6.07
2023-03-16T09:03:13.319Z,6.43
2023-03-16T09:05:40.353Z,7.60
2023-03-16T09:08:07.187Z,6.00
2023-03-16T09:10:34.235Z,5.77
2023-03-16T09:13:01.262Z,6.07
2023-03-16T09:15:29.037Z,7.70
2023-03-16T09:17:57.323Z,6.10
2023-03-16T09:20:30.140Z,5.03
2023-03-16T09:22:57.589Z,5.97
2023-03-16T09:25:26.013Z,4.70
2023-03-16T09:27:53.739Z,4.87
2023-03-16T09:30:20.698Z,4.70
2023-03-16T09:32:48.752Z,4.77
2023-03-16T09:35:15.913Z,4.47
2023-03-16T09:37:45.691Z,4.77
2023-03-16T09:40:29.028Z,4.87
2023-03-16T09:43:58.465Z,4.20
2023-03-16T09:46:31.490Z,4.30
2023-03-16T09:48:59.438Z,4.80
2023-03-16T09:51:44.782Z,4.13
2023-03-16T09:54:34.246Z,4.37
2023-03-16T09:57:02.897Z,4.27
2023-03-16T09:59:29.718Z,4.63
2023-03-16T10:02:05.606Z,4.27
2023-03-16T10:05:00.891Z,4.30
2023-03-16T10:08:04.995Z,4.00
2023-03-16T10:10:57.660Z,3.63
2023-03-16T10:13:44.046Z,3.97
2023-03-16T10:16:25.393Z,6.23
2023-03-16T10:19:02.634Z,3.50
2023-03-16T10:21:33.298Z,4.27
2023-03-16T10:24:04.184Z,4.30
2023-03-16T10:26:44.156Z,4.13
2023-03-16T10:29:13.103Z,3.50
2023-03-16T10:31:42.761Z,3.60
2023-03-16T10:34:10.681Z,3.40
2023-03-16T10:36:43.896Z,3.73
2023-03-16T10:39:16.317Z,3.20
2023-03-16T10:41:47.808Z,3.30
2023-03-16T10:44:28.405Z,3.30
2023-03-16T10:47:03.468Z,2.97
2023-03-16T10:49:49.047Z,3.40
2023-03-16T10:52:42.495Z,3.63
2023-03-16T10:55:43.501Z,3.17
2023-03-16T10:58:10.509Z,4.37
2023-03-16T11:00:43.348Z,3.53
2023-03-16T11:03:37.113Z,3.20
2023-03-16T11:06:08.848Z,3.43
2023-03-16T11:08:41.846Z,4.30
2023-03-16T11:11:32.434Z,3.53
2023-03-16T11:14:04.634Z,4.73
2023-03-16T11:16:43.724Z,4.00
2023-03-16T11:19:56.083Z,3.00
2023-03-16T11:22:25.371Z,3.33
2023-03-16T11:25:26.924Z,3.20
2023-03-16T11:28:12.912Z,3.10
2023-03-16T11:31:02.757Z,3.13
2023-03-16T11:33:32.179Z,4.17
2023-03-16T11:36:32.189Z,3.23
2023-03-16T11:39:29.573Z,3.20
2023-03-16T11:42:14.033Z,3.57
2023-03-16T11:45:06.493Z,5.33
2023-03-16T11:48:17.687Z,3.07
2023-03-16T11:51:42.246Z,3.30
2023-03-16T11:54:33.982Z,3.37
2023-03-16T11:57:22.445Z,3.30
2023-03-16T12:00:02.505Z,3.10
2023-03-16T12:02:55.453Z,3.53
2023-03-16T12:06:16.890Z,3.50
2023-03-16T12:09:48.030Z,3.70
2023-03-16T12:12:50.554Z,3.60
2023-03-16T12:15:51.971Z,3.50
2023-03-16T12:18:33.156Z,3.33
2023-03-16T12:21:07.160Z,3.00
2023-03-16T12:23:41.609Z,3.00
2023-03-16T12:26:09.228Z,3.07
2023-03-16T12:28:38.314Z,3.20
2023-03-16T12:31:16.049Z,4.73
2023-03-16T12:34:33.557Z,3.33
2023-03-16T12:37:41.576Z,3.20
2023-03-16T12:40:42.793Z,3.67
2023-03-16T12:43:46.347Z,3.50
2023-03-16T12:46:53.349Z,5.10
2023-03-16T12:49:21.113Z,3.23
2023-03-16T12:52:01.405Z,3.73
2023-03-16T12:54:28.861Z,3.77
2023-03-16T12:57:08.749Z,5.07
2023-03-16T12:59:46.483Z,3.10
2023-03-16T13:02:30.513Z,4.40
2023-03-16T13:05:10.002Z,4.67
2023-03-16T13:07:46.277Z,3.57
2023-03-16T13:10:16.443Z,4.53
2023-03-16T13:12:44.509Z,4.63
2023-03-16T13:15:21.543Z,4.27
2023-03-16T13:18:02.850Z,3.33
2023-03-16T13:20:56.334Z,5.83
2023-03-16T13:23:50.214Z,3.30
2023-03-16T13:26:52.142Z,5.30
2023-03-16T13:29:27.090Z,3.67
2023-03-16T13:32:07.658Z,3.20
2023-03-16T13:34:49.226Z,3.20
2023-03-16T13:37:20.974Z,3.10
2023-03-16T13:39:58.359Z,4.27
2023-03-16T13:42:32.382Z,3.20
2023-03-16T13:45:12.772Z,3.23
2023-03-16T13:47:44.560Z,3.10
2023-03-16T13:50:13.834Z,3.87
2023-03-16T13:52:44.171Z,3.03
2023-03-16T13:55:26.515Z,5.77
2023-03-16T13:57:53.645Z,3.93
2023-03-16T14:00:35.364Z,3.73
2023-03-16T14:03:18.690Z,6.57
2023-03-16T14:05:46.037Z,3.83
2023-03-16T14:08:23.227Z,7.00
2023-03-16T14:10:54.347Z,6.93
2023-03-16T14:13:25.895Z,4.07
2023-03-16T14:16:01.018Z,3.83
2023-03-16T14:18:41.321Z,3.17
2023-03-16T14:21:16.339Z,3.03
2023-03-16T14:24:06.096Z,4.17
2023-03-16T14:26:47.686Z,3.37
2023-03-16T14:29:31.323Z,3.57
2023-03-16T14:32:03.169Z,3.30
2023-03-16T14:34:41.979Z,3.50
2023-03-16T14:37:13.754Z,4.93
2023-03-16T14:39:41.056Z,4.50
2023-03-16T14:42:21.587Z,6.13
2023-03-16T14:44:49.849Z,5.33
2023-03-16T14:47:30.873Z,3.10
2023-03-16T14:50:06.374Z,4.07
2023-03-16T14:52:34.537Z,3.50
2023-03-16T14:55:11.734Z,4.00
2023-03-16T14:57:41.848Z,3.37
2023-03-16T15:00:17.813Z,5.87
2023-03-16T15:03:07.917Z,3.23
2023-03-16T15:05:42.751Z,3.60
2023-03-16T15:08:27.031Z,4.60
2023-03-16T15:10:57.772Z,6.47
2023-03-16T15:13:35.197Z,3.63
2023-03-16T15:16:04.424Z,2.93
2023-03-16T15:18:33.400Z,3.67
2023-03-16T15:21:02.061Z,3.33
2023-03-16T15:23:30.811Z,3.47
2023-03-16T15:26:02.780Z,4.03
2023-03-16T15:28:29.648Z,3.40
2023-03-16T15:31:00.603Z,3.33
2023-03-16T15:33:28.535Z,4.73
2023-03-16T15:35:59.288Z,2.87
2023-03-16T15:38:33.408Z,6.10
2023-03-16T15:41:01.049Z,2.70
2023-03-16T15:43:30.620Z,3.43
2023-03-16T15:46:00.086Z,3.57
2023-03-16T15:48:27.212Z,3.33
2023-03-16T15:51:23.449Z,3.10
2023-03-16T15:53:58.529Z,2.73
2023-03-16T15:56:30.392Z,3.27
2023-03-16T15:59:01.935Z,3.17
2023-03-16T16:01:34.853Z,7.67
2023-03-16T16:04:03.353Z,3.23
2023-03-16T16:06:30.474Z,3.23
2023-03-16T16:08:57.439Z,3.03
2023-03-16T16:11:28.292Z,3.40
2023-03-16T16:13:57.721Z,3.30
2023-03-16T16:16:29.634Z,4.60
2023-03-16T16:18:57.951Z,6.03
2023-03-16T16:21:30.733Z,3.10
2023-03-16T16:23:58.388Z,3.83
2023-03-16T16:26:50.882Z,3.03
2023-03-16T16:29:30.601Z,4.83
2023-03-16T16:31:57.802Z,3.30
2023-03-16T16:34:25.527Z,3.83
2023-03-16T16:36:57.058Z,3.03
2023-03-16T16:39:24.528Z,3.03
2023-03-16T16:41:55.152Z,5.83
2023-03-16T16:44:27.191Z,3.13
2023-03-16T16:46:55.166Z,4.03
2023-03-16T16:49:30.461Z,3.83
2023-03-16T16:51:59.083Z,4.57
2023-03-16T16:54:30.189Z,3.90
2023-03-16T16:56:59.595Z,6.37
2023-03-16T16:59:30.251Z,8.10
2023-03-16T17:01:57.701Z,4.00
2023-03-16T17:04:28.374Z,3.97
2023-03-16T17:07:01.670Z,4.27
2023-03-16T17:09:30.177Z,5.80
2023-03-16T17:12:01.070Z,4.90
2023-03-16T17:14:28.606Z,5.00
2023-03-16T17:16:56.183Z,7.00
2023-03-16T17:19:27.718Z,4.33
2023-03-16T17:21:57.476Z,4.07
2023-03-16T17:24:25.225Z,4.50
2023-03-16T17:26:57.095Z,6.40
2023-03-16T17:29:34.507Z,5.67
2023-03-16T17:32:08.056Z,4.77
2023-03-16T17:34:35.443Z,5.27
2023-03-16T17:37:02.696Z,5.57
2023-03-16T17:39:33.632Z,6.80
2023-03-16T17:42:15.921Z,5.50
2023-03-16T17:44:50.435Z,5.67
2023-03-16T17:47:26.267Z,5.03
2023-03-16T17:49:54.564Z,6.57
2023-03-16T17:52:28.748Z,6.03
2023-03-16T17:54:56.174Z,5.63
2023-03-16T17:57:33.357Z,9.30
2023-03-16T18:00:02.936Z,7.70
2023-03-16T18:02:57.308Z,8.77
2023-03-16T18:05:36.665Z,8.77
2023-03-16T18:08:22.419Z,9.33
2023-03-16T18:10:58.962Z,10.00
2023-03-16T18:13:31.483Z,9.63
2023-03-16T18:15:59.248Z,6.80
2023-03-16T18:18:31.129Z,8.33
2023-03-16T18:21:00.313Z,8.63
2023-03-16T18:23:33.791Z,5.60
2023-03-16T18:26:03.692Z,6.17
2023-03-16T18:28:31.669Z,7.70
2023-03-16T18:31:00.027Z,8.93
2023-03-16T18:33:43.821Z,7.00
2023-03-16T18:36:18.597Z,6.10
2023-03-16T18:38:48.430Z,8.50
2023-03-16T18:41:22.774Z,7.30
2023-03-16T18:43:56.962Z,7.33
2023-03-16T18:46:33.092Z,10.43
2023-03-16T18:49:16.678Z,6.80
2023-03-16T18:51:49.237Z,6.77
2023-03-16T18:54:30.449Z,6.00
2023-03-16T18:56:59.004Z,6.47
2023-03-16T18:59:27.121Z,6.27
2023-03-16T19:01:54.414Z,6.00
2023-03-16T19:04:26.480Z,7.40
2023-03-16T19:06:55.197Z,6.53
2023-03-16T19:09:32.842Z,6.53
2023-03-16T19:11:59.783Z,6.30
2023-03-16T19:14:31.812Z,6.93
2023-03-16T19:16:59.394Z,6.33
2023-03-16T19:19:27.222Z,6.33
2023-03-16T19:22:05.804Z,6.93
2023-03-16T19:24:45.340Z,7.50
2023-03-16T19:27:25.578Z,7.33
2023-03-16T19:29:54.534Z,8.50
2023-03-16T19:32:22.910Z,8.40
2023-03-16T19:34:52.657Z,9.53
2023-03-16T19:37:19.768Z,8.50
2023-03-16T19:39:46.984Z,6.90
2023-03-16T19:42:28.261Z,21.80
2023-03-16T19:44:55.177Z,24.50
2023-03-16T19:47:29.825Z,21.43
2023-03-16T19:49:58.536Z,15.13
2023-03-16T19:52:28.020Z,8.63
2023-03-16T19:54:54.800Z,8.20
2023-03-16T19:57:21.929Z,8.27
2023-03-16T19:59:57.352Z,7.37
2023-03-16T20:02:32.513Z,7.60
2023-03-16T20:04:59.320Z,16.63
2023-03-16T20:07:26.142Z,10.53
2023-03-16T20:09:53.762Z,8.53
2023-03-16T20:12:27.368Z,10.10
2023-03-16T20:14:56.600Z,10.67
2023-03-16T20:17:28.253Z,17.47
2023-03-16T20:19:57.080Z,7.63
2023-03-16T20:22:28.337Z,8.60
2023-03-16T20:24:57.755Z,7.50
2023-03-16T20:27:27.577Z,8.10
2023-03-16T20:29:55.641Z,7.10
2023-03-16T20:32:32.738Z,8.07
2023-03-16T20:34:59.881Z,10.27
2023-03-16T20:37:30.869Z,7.67
2023-03-16T20:39:59.867Z,9.53
2023-03-16T20:42:33.878Z,6.20
2023-03-16T20:45:01.523Z,9.50
2023-03-16T20:47:28.465Z,6.60
2023-03-16T20:49:59.093Z,6.20
2023-03-16T20:52:30.842Z,10.40
2023-03-16T20:54:58.482Z,7.03
2023-03-16T20:57:28.967Z,6.27
2023-03-16T20:59:56.396Z,5.23
2023-03-16T21:02:36.306Z,6.37
2023-03-16T21:05:06.817Z,6.40
2023-03-16T21:07:33.820Z,9.77
2023-03-16T21:10:00.784Z,8.80
2023-03-16T21:12:34.828Z,7.27
2023-03-16T21:15:08.127Z,8.93
2023-03-16T21:17:39.024Z,8.90
2023-03-16T21:20:17.444Z,6.87
2023-03-16T21:22:45.879Z,6.20
2023-03-16T21:25:32.677Z,6.33
2023-03-16T21:28:03.406Z,6.00
2023-03-16T21:30:35.614Z,6.83
2023-03-16T21:33:03.941Z,6.30
2023-03-16T21:35:36.602Z,6.47
2023-03-16T21:38:15.883Z,5.83
2023-03-16T21:40:43.851Z,5.60
2023-03-16T21:43:12.052Z,6.47
2023-03-16T21:45:39.985Z,5.73
2023-03-16T21:48:13.440Z,6.70
2023-03-16T21:50:40.613Z,8.57
2023-03-16T21:53:22.642Z,8.17
2023-03-16T21:55:51.675Z,5.57
2023-03-16T21:58:19.189Z,6.53
2023-03-16T22:00:47.323Z,7.67
2023-03-16T22:03:50.173Z,6.27
2023-03-16T22:06:17.746Z,5.80
2023-03-16T22:08:44.793Z,8.57
2023-03-16T22:11:31.931Z,4.90
2023-03-16T22:13:59.529Z,5.80
2023-03-16T22:16:31.436Z,5.40
2023-03-16T22:18:58.773Z,5.60
2023-03-16T22:21:33.182Z,5.67
2023-03-16T22:24:01.289Z,5.97
2023-03-16T22:26:29.253Z,6.73
2023-03-16T22:28:58.176Z,5.17
2023-03-16T22:31:38.996Z,5.50
2023-03-16T22:34:07.150Z,5.70
2023-03-16T22:36:34.495Z,5.37
2023-03-16T22:39:05.738Z,5.20
2023-03-16T22:41:32.976Z,5.93
2023-03-16T22:43:59.836Z,4.67
2023-03-16T22:46:28.613Z,5.43
2023-03-16T22:48:57.302Z,5.67
2023-03-16T22:51:34.624Z,5.60
2023-03-16T22:54:15.604Z,5.43
2023-03-16T22:56:44.895Z,5.57
2023-03-16T22:59:18.867Z,6.40
2023-03-16T23:01:49.150Z,5.13
2023-03-16T23:04:32.259Z,5.67
2023-03-16T23:06:59.752Z,6.20
2023-03-16T23:09:26.716Z,5.33
2023-03-16T23:11:54.922Z,5.97
2023-03-16T23:14:25.688Z,5.83
2023-03-16T23:16:53.182Z,6.33
2023-03-16T23:19:29.535Z,5.60
2023-03-16T23:22:03.654Z,6.67
2023-03-16T23:24:32.374Z,6.93
2023-03-16T23:27:00.236Z,5.63
2023-03-16T23:29:27.917Z,5.50
2023-03-16T23:31:54.806Z,5.97
2023-03-16T23:34:24.913Z,6.37
2023-03-16T23:36:52.493Z,7.10
2023-03-16T23:39:19.595Z,5.87
2023-03-16T23:41:49.169Z,6.67
2023-03-16T23:44:20.736Z,5.47
2023-03-16T23:46:47.964Z,6.40
2023-03-16T23:49:32.789Z,5.57
2023-03-16T23:52:01.591Z,5.67
2023-03-16T23:54:31.880Z,5.50
2023-03-16T23:56:59.187Z,5.97
2023-03-16T23:59:27.610Z,6.40
